Time;durP1;ratioP1;P1;durP2;ratioP2;P2;SDS_P1;SDS_P2;PMS_P1;PMS_P2;Temp;Humidity;BMP_temperature;BMP_pressure;BME280_temperature;BME280_humidity;BME280_pressure;Samples;Min_cycle;Max_cycle;Signal;HPM_P1;HPM_P2
2022/12/02 00:02:32;;;;;;;91.60;51.57;;;;;;;5.21;100.00;102476.31;5170557;28;20027;-68
2022/12/02 00:05:20;;;;;;;87.05;47.95;;;;;;;5.23;100.00;102489.28;5172207;28;20043;-68
2022/12/02 00:07:52;;;;;;;89.77;50.57;;;;;;;5.17;100.00;102488.47;5156672;28;20065;-67
2022/12/02 00:10:25;;;;;;;93.07;50.60;;;;;;;5.13;100.00;102485.94;5171208;28;20482;-68
2022/12/02 00:13:19;;;;;;;91.82;50.30;;;;;;;5.14;100.00;102483.31;5160040;28;20031;-68
2022/12/02 00:15:57;;;;;;;94.63;51.73;;;;;;;5.17;100.00;102487.59;5169567;28;20115;-67
2022/12/02 00:18:29;;;;;;;98.93;53.00;;;;;;;5.16;100.00;102480.69;5170766;28;20558;-68
2022/12/02 00:21:00;;;;;;;91.57;51.47;;;;;;;5.09;100.00;102474.69;5167739;28;20039;-68
2022/12/02 00:23:31;;;;;;;88.03;50.37;;;;;;;5.05;100.00;102479.06;5171524;28;20030;-68
2022/12/02 00:26:02;;;;;;;82.73;49.97;;;;;;;5.00;100.00;102478.25;5167479;28;20035;-67
2022/12/02 00:28:34;;;;;;;80.90;50.20;;;;;;;4.94;100.00;102478.31;5170540;28;20031;-68
2022/12/02 00:31:05;;;;;;;76.87;48.10;;;;;;;4.83;100.00;102478.41;5170771;28;20367;-68
2022/12/02 00:33:36;;;;;;;82.40;49.67;;;;;;;4.88;100.00;102468.84;5170910;28;20035;-67
2022/12/02 00:36:07;;;;;;;72.47;46.77;;;;;;;4.82;100.00;102463.69;5171450;28;20544;-67
2022/12/02 00:38:39;;;;;;;72.90;44.77;;;;;;;4.84;100.00;102455.03;5171372;28;20029;-68
2022/12/02 00:41:10;;;;;;;77.10;46.47;;;;;;;4.72;100.00;102460.34;5170666;28;20038;-68
2022/12/02 00:46:32;;;;;;;76.90;46.43;;;;;;;4.86;100.00;102460.22;5168383;28;20042;-69
2022/12/02 00:49:06;;;;;;;74.53;45.23;;;;;;;4.75;100.00;102455.09;5171097;28;20031;-67
2022/12/02 00:51:39;;;;;;;73.35;46.13;;;;;;;4.71;100.00;102459.47;5171085;28;20050;-68
2022/12/02 00:54:11;;;;;;;67.57;43.87;;;;;;;4.67;100.00;102451.72;5171439;28;20031;-68
2022/12/02 00:56:43;;;;;;;82.83;46.47;;;;;;;4.74;100.00;102447.34;5170376;28;20509;-68
2022/12/02 00:59:14;;;;;;;76.57;46.83;;;;;;;4.79;100.00;102445.56;5171101;28;20121;-68
2022/12/02 01:01:45;;;;;;;73.37;44.07;;;;;;;4.64;100.00;102446.56;5172027;28;20089;-67
2022/12/02 01:04:17;;;;;;;72.27;44.07;;;;;;;4.79;100.00;102453.34;5170937;28;20030;-68
2022/12/02 01:06:48;;;;;;;76.30;46.23;;;;;;;4.65;100.00;102450.88;5174669;28;20034;-68
2022/12/02 01:09:19;;;;;;;71.00;43.00;;;;;;;4.75;100.00;102442.13;5174721;28;20027;-68
2022/12/02 01:11:50;;;;;;;72.20;43.47;;;;;;;4.78;100.00;102438.66;5175043;28;20033;-67
2022/12/02 01:14:22;;;;;;;74.83;45.23;;;;;;;4.65;100.00;102441.38;5174616;28;20053;-67
2022/12/02 01:16:53;;;;;;;80.03;45.73;;;;;;;4.63;100.00;102444.84;5174043;28;20035;-67
2022/12/02 01:19:24;;;;;;;74.13;46.37;;;;;;;4.68;100.00;102448.25;5174884;28;20033;-68
2022/12/02 01:21:56;;;;;;;74.97;45.87;;;;;;;4.63;100.00;102439.63;5174670;28;20197;-68
2022/12/02 01:24:27;;;;;;;72.90;46.80;;;;;;;4.69;100.00;102444.78;5175007;28;20113;-66
2022/12/02 01:26:58;;;;;;;70.30;44.50;;;;;;;4.65;100.00;102443.09;5173025;28;20030;-67
2022/12/02 01:29:29;;;;;;;72.37;45.53;;;;;;;4.64;100.00;102441.38;5173603;28;20041;-67
2022/12/02 01:32:01;;;;;;;73.03;43.47;;;;;;;4.58;100.00;102443.16;5172113;28;20031;-67
2022/12/02 01:34:32;;;;;;;74.67;44.53;;;;;;;4.66;100.00;102445.66;5174523;28;20041;-67
2022/12/02 01:37:03;;;;;;;73.97;43.77;;;;;;;4.64;100.00;102441.38;5173916;28;20034;-67
2022/12/02 01:39:34;;;;;;;74.03;43.73;;;;;;;4.54;100.00;102440.59;5174160;28;20034;-67
2022/12/02 01:42:06;;;;;;;73.83;44.13;;;;;;;4.64;100.00;102447.44;5173121;28;20074;-67
2022/12/02 01:44:37;;;;;;;76.43;44.93;;;;;;;4.62;100.00;102443.13;5174416;28;20031;-67
2022/12/02 01:47:09;;;;;;;77.03;44.90;;;;;;;4.52;100.00;102452.72;5173052;28;20035;-67
2022/12/02 01:49:40;;;;;;;71.00;43.70;;;;;;;4.72;100.00;102444.75;5174819;28;20030;-67
2022/12/02 01:52:11;;;;;;;70.77;43.23;;;;;;;4.52;100.00;102447.53;5173994;28;20047;-67
2022/12/02 01:54:42;;;;;;;75.47;45.27;;;;;;;4.51;100.00;102449.25;5173527;28;20373;-69
2022/12/02 01:57:14;;;;;;;74.60;44.80;;;;;;;4.55;100.00;102438.00;5174572;28;20409;-67
2022/12/02 01:59:46;;;;;;;72.63;43.70;;;;;;;4.48;100.00;102432.00;5174362;28;20019;-67
2022/12/02 02:02:31;;;;;;;71.37;45.07;;;;;;;4.57;100.00;102425.84;5173254;28;20031;-67
2022/12/02 02:05:12;;;;;;;70.03;43.57;;;;;;;4.64;100.00;102437.06;5172027;28;20046;-67
2022/12/02 02:07:47;;;;;;;75.07;44.13;;;;;;;4.80;100.00;102435.16;5173670;28;20046;-67
2022/12/02 02:10:20;;;;;;;73.00;41.57;;;;;;;4.77;100.00;102439.50;5173640;28;20050;-67
2022/12/02 02:12:52;;;;;;;73.47;42.53;;;;;;;4.72;100.00;102442.16;5174392;28;20102;-67
2022/12/02 02:15:23;;;;;;;67.30;39.97;;;;;;;4.72;100.00;102431.78;5174154;28;20549;-68
2022/12/02 02:17:56;;;;;;;72.87;43.13;;;;;;;4.69;100.00;102437.88;5171557;28;20045;-67
2022/12/02 02:20:27;;;;;;;72.73;42.07;;;;;;;4.63;100.00;102429.25;5172645;28;20031;-66
2022/12/02 02:23:04;;;;;;;69.77;41.63;;;;;;;4.69;100.00;102432.69;5173954;28;20033;-67
2022/12/02 02:25:39;;;;;;;69.83;42.83;;;;;;;4.75;100.00;102439.53;5174397;28;20030;-67
2022/12/02 02:28:11;;;;;;;71.77;43.57;;;;;;;4.68;100.00;102432.66;5173694;28;20105;-67
2022/12/02 02:30:43;;;;;;;67.07;42.10;;;;;;;4.63;100.00;102429.25;5173500;28;20051;-68
2022/12/02 02:33:15;;;;;;;73.10;41.90;;;;;;;4.51;100.00;102427.63;5172119;28;20038;-67
2022/12/02 02:35:46;;;;;;;72.73;42.77;;;;;;;4.53;100.00;102433.69;5172121;28;20627;-67
2022/12/02 02:38:21;;;;;;;76.27;45.43;;;;;;;4.52;100.00;102431.97;5174104;28;20062;-67
2022/12/02 02:40:53;;;;;;;;;;;;;;;4.74;100.00;102424.84;5174719;28;20027;-67
2022/12/02 02:43:27;;;;;;;75.83;43.80;;;;;;;4.42;100.00;102431.16;5177858;28;19925;-67
2022/12/02 02:45:59;;;;;;;78.63;46.80;;;;;;;4.45;100.00;102429.41;5175526;28;20042;-67
2022/12/02 02:48:32;;;;;;;74.00;44.33;;;;;;;4.43;100.00;102418.19;5176189;28;20058;-67
2022/12/02 02:51:04;;;;;;;76.33;44.97;;;;;;;4.22;100.00;102419.22;5176724;28;20494;-67
2022/12/02 02:53:36;;;;;;;71.10;44.60;;;;;;;4.18;100.00;102412.34;5177112;28;20441;-66
2022/12/02 02:56:08;;;;;;;80.13;47.27;;;;;;;4.13;100.00;102401.13;5175832;28;20161;-67
2022/12/02 02:58:39;;;;;;;68.70;42.70;;;;;;;4.21;100.00;102412.31;5176324;28;20092;-67
2022/12/02 03:01:14;;;;;;;68.27;42.77;;;;;;;4.24;100.00;102412.31;5175714;28;20031;-67
2022/12/02 03:03:53;;;;;;;69.87;42.30;;;;;;;4.21;100.00;102410.59;5176721;28;20023;-67
2022/12/02 03:06:27;;;;;;;60.97;37.93;;;;;;;4.15;100.00;102412.38;5177333;28;20054;-67
2022/12/02 03:09:00;;;;;;;69.20;39.87;;;;;;;4.27;100.00;102407.09;5176566;28;20027;-67
2022/12/02 03:11:32;;;;;;;70.40;40.90;;;;;;;4.17;100.00;102401.09;5176825;28;20046;-67
2022/12/02 03:14:05;;;;;;;61.47;38.03;;;;;;;4.10;100.00;102400.28;5176839;28;20019;-67
2022/12/02 03:16:37;;;;;;;63.53;38.50;;;;;;;4.18;100.00;102389.00;5175613;28;20046;-66
2022/12/02 03:19:09;;;;;;;62.70;38.07;;;;;;;4.19;100.00;102386.38;5176402;28;20528;-67
2022/12/02 03:21:41;;;;;;;62.60;39.27;;;;;;;4.19;100.00;102391.56;5176880;28;20054;-67
2022/12/02 03:24:12;;;;;;;59.87;37.17;;;;;;;4.09;100.00;102388.19;5172306;28;20094;-69
2022/12/02 03:26:45;;;;;;;63.60;36.40;;;;;;;4.17;100.00;102382.09;5173455;28;20070;-67
2022/12/02 03:29:16;;;;;;;64.57;40.07;;;;;;;4.23;100.00;102395.00;5176309;28;20022;-67
2022/12/02 03:31:48;;;;;;;62.37;39.43;;;;;;;4.14;100.00;102400.28;5175588;28;20502;-67
2022/12/02 03:34:20;;;;;;;57.23;37.40;;;;;;;4.14;100.00;102395.94;5176644;28;20053;-67
2022/12/02 03:36:51;;;;;;;63.73;38.13;;;;;;;3.98;100.00;102397.78;5175651;28;20098;-67
2022/12/02 03:39:22;;;;;;;58.90;38.50;;;;;;;4.05;100.00;102403.81;5176562;28;20030;-67
2022/12/02 03:41:54;;;;;;;62.57;38.23;;;;;;;3.87;100.00;102400.47;5176192;28;20505;-67
2022/12/02 03:44:25;;;;;;;56.57;36.47;;;;;;;3.94;100.00;102393.50;5176493;28;20378;-66
2022/12/02 03:46:57;;;;;;;55.67;35.53;;;;;;;3.89;100.00;102385.75;5175464;28;20086;-67
2022/12/02 03:49:30;;;;;;;62.47;38.23;;;;;;;3.79;100.00;102382.34;5176405;28;20042;-67
2022/12/02 03:52:02;;;;;;;65.80;38.80;;;;;;;3.80;100.00;102380.63;5175280;28;20113;-67
2022/12/02 03:54:34;;;;;;;62.43;38.00;;;;;;;3.84;100.00;102380.59;5176289;28;20019;-67
2022/12/02 03:57:08;;;;;;;65.37;37.90;;;;;;;3.79;100.00;102378.91;5176080;28;20086;-66
2022/12/02 03:59:39;;;;;;;61.63;37.45;;;;;;;3.75;100.00;102378.06;5174179;28;20033;-67
2022/12/02 04:02:10;;;;;;;62.57;39.27;;;;;;;3.63;100.00;102353.94;5174528;28;20035;-67
2022/12/02 04:04:41;;;;;;;63.07;36.73;;;;;;;3.76;100.00;102353.88;5175527;28;20097;-68
2022/12/02 04:07:13;;;;;;;60.97;38.33;;;;;;;3.84;100.00;102362.44;5175733;28;20029;-68
2022/12/02 04:09:44;;;;;;;66.67;37.30;;;;;;;3.84;100.00;102371.97;5175697;28;20074;-67
2022/12/02 04:12:15;;;;;;;61.30;36.60;;;;;;;3.72;100.00;102358.22;5175647;28;20027;-67
2022/12/02 04:14:47;;;;;;;65.43;39.80;;;;;;;3.83;100.00;102371.09;5175839;28;20014;-67
2022/12/02 04:17:18;;;;;;;63.30;38.73;;;;;;;3.84;100.00;102370.22;5174407;28;20035;-67
2022/12/02 04:19:49;;;;;;;65.00;39.67;;;;;;;3.87;100.00;102359.81;5175183;28;20471;-67
2022/12/02 04:22:20;;;;;;;66.20;38.17;;;;;;;3.91;100.00;102367.59;5175743;28;20359;-67
2022/12/02 04:24:52;;;;;;;67.93;41.23;;;;;;;3.95;100.00;102370.16;5175146;28;20051;-68
2022/12/02 04:27:23;;;;;;;60.47;37.93;;;;;;;3.81;100.00;102365.06;5175134;28;20030;-67
2022/12/02 04:29:54;;;;;;;65.23;38.63;;;;;;;3.88;100.00;102360.69;5175193;28;20478;-67
2022/12/02 04:32:26;;;;;;;67.17;40.67;;;;;;;3.99;100.00;102350.25;5174514;28;20037;-67
2022/12/02 04:34:57;;;;;;;66.87;40.70;;;;;;;3.92;100.00;102358.94;5175192;28;20027;-67
2022/12/02 04:37:28;;;;;;;64.77;39.90;;;;;;;3.80;100.00;102359.88;5174990;28;20038;-67
2022/12/02 04:39:59;;;;;;;62.00;37.67;;;;;;;3.86;100.00;102358.13;5174778;28;20027;-66
2022/12/02 04:42:31;;;;;;;62.93;37.00;;;;;;;3.82;100.00;102353.81;5174582;28;20101;-67
2022/12/02 04:45:04;;;;;;;63.70;38.17;;;;;;;3.85;100.00;102361.59;5174593;28;20035;-67
2022/12/02 04:47:35;;;;;;;59.70;35.37;;;;;;;3.62;100.00;102362.59;5169199;28;20154;-66
2022/12/02 04:50:07;;;;;;;58.77;34.50;;;;;;;3.59;100.00;102354.84;5171739;28;20437;-67
2022/12/02 04:52:38;;;;;;;57.40;31.53;;;;;;;3.56;100.00;102339.28;5159901;28;20395;-67
2022/12/02 04:55:09;;;;;;;54.73;32.17;;;;;;;3.51;100.00;102341.91;5165858;28;20031;-67
2022/12/02 04:57:41;;;;;;;52.47;30.10;;;;;;;3.53;100.00;102351.41;5174209;28;20034;-67
2022/12/02 05:00:13;;;;;;;52.73;31.23;;;;;;;3.51;100.00;102343.66;5174213;28;20035;-69
2022/12/02 05:02:44;;;;;;;52.00;29.90;;;;;;;3.54;100.00;102345.38;5168655;28;20034;-67
2022/12/02 05:05:16;;;;;;;49.40;28.70;;;;;;;3.53;100.00;102341.91;5159113;28;20037;-67
2022/12/02 05:07:47;;;;;;;51.73;29.50;;;;;;;3.67;100.00;102339.22;5166374;28;20027;-67
2022/12/02 05:10:18;;;;;;;47.17;28.23;;;;;;;3.60;100.00;102334.97;5162530;28;20110;-67
2022/12/02 05:12:50;;;;;;;47.03;28.97;;;;;;;3.51;100.00;102338.47;5163383;28;20026;-67
2022/12/02 05:15:21;;;;;;;41.97;27.60;;;;;;;3.57;100.00;102340.16;5163423;28;20094;-67
2022/12/02 05:17:52;;;;;;;48.80;29.90;;;;;;;3.55;100.00;102327.22;5167610;28;20031;-67
2022/12/02 05:20:23;;;;;;;48.97;29.67;;;;;;;3.40;100.00;102325.59;5169934;28;20034;-68
2022/12/02 05:22:55;;;;;;;49.40;29.20;;;;;;;3.53;100.00;102321.19;5174071;28;20025;-67
2022/12/02 05:25:26;;;;;;;49.17;29.47;;;;;;;3.45;100.00;102318.66;5157984;28;20591;-67
2022/12/02 05:27:57;;;;;;;53.23;29.63;;;;;;;3.49;100.00;102327.28;5161562;28;20022;-67
2022/12/02 05:30:29;;;;;;;48.17;28.40;;;;;;;3.55;100.00;102321.16;5158426;28;20606;-68
2022/12/02 05:33:00;;;;;;;46.63;27.60;;;;;;;3.42;100.00;102328.16;5159620;28;20481;-68
2022/12/02 05:35:31;;;;;;;47.47;27.57;;;;;;;3.34;100.00;102333.38;5160561;28;20031;-68
2022/12/02 05:38:02;;;;;;;47.47;27.80;;;;;;;3.33;100.00;102345.50;5174469;28;20478;-67
2022/12/02 05:40:34;;;;;;;47.90;28.30;;;;;;;3.24;100.00;102336.03;5174357;28;20031;-67
2022/12/02 05:43:19;;;;;;;47.77;27.97;;;;;;;3.30;100.00;102319.59;5174420;28;20023;-68
2022/12/02 05:45:51;;;;;;;47.50;28.23;;;;;;;3.26;100.00;102323.06;5172950;28;20482;-67
2022/12/02 05:48:24;;;;;;;49.63;27.77;;;;;;;3.26;100.00;102315.31;5174785;28;20035;-67
2022/12/02 05:50:55;;;;;;;49.33;28.57;;;;;;;3.31;100.00;102320.44;5173910;28;20485;-68
2022/12/02 05:53:27;;;;;;;49.17;30.80;;;;;;;3.35;100.00;102317.00;5174571;28;20054;-68
2022/12/02 05:55:59;;;;;;;45.10;28.33;;;;;;;3.24;100.00;102322.22;5173808;28;20492;-67
2022/12/02 05:58:30;;;;;;;48.43;29.07;;;;;;;3.19;100.00;102323.97;5173950;28;20035;-67
2022/12/02 06:01:12;;;;;;;50.23;28.53;;;;;;;3.23;100.00;102312.75;5171487;28;20477;-67
2022/12/02 06:03:43;;;;;;;46.00;26.93;;;;;;;3.12;100.00;102325.72;5161354;28;20541;-68
2022/12/02 06:06:15;;;;;;;43.67;25.63;;;;;;;3.15;100.00;102328.28;5171137;28;20023;-68
2022/12/02 06:08:46;;;;;;;44.47;25.93;;;;;;;3.13;100.00;102323.13;5166671;28;20458;-67
2022/12/02 06:11:28;;;;;;;44.53;25.97;;;;;;;3.25;100.00;102329.09;5169665;28;20030;-67
2022/12/02 06:14:12;;;;;;;47.40;27.57;;;;;;;3.25;100.00;102309.25;5165173;28;20485;-68
2022/12/02 06:16:47;;;;;;;46.50;25.88;;;;;;;3.36;100.00;102316.09;5162821;28;20031;-68
2022/12/02 06:19:24;;;;;;;43.17;23.83;;;;;;;3.33;100.00;102317.00;5169538;28;20038;-67
2022/12/02 06:21:59;;;;;;;46.47;25.33;;;;;;;3.24;100.00;102323.09;5176264;28;20023;-67
2022/12/02 06:24:33;;;;;;;41.10;25.77;;;;;;;3.34;100.00;102329.06;5176437;28;20050;-67
2022/12/02 06:27:04;;;;;;;43.87;25.10;;;;;;;3.32;100.00;102324.75;5172733;28;20544;-68
2022/12/02 06:29:35;;;;;;;47.50;27.30;;;;;;;3.15;100.00;102320.53;5175345;28;20026;-67
2022/12/02 06:32:13;;;;;;;42.17;25.03;;;;;;;3.10;100.00;102330.03;5174033;28;20123;-67
2022/12/02 06:34:45;;;;;;;40.50;23.87;;;;;;;3.07;100.00;102324.88;5176546;28;20026;-67
2022/12/02 06:37:28;;;;;;;46.13;26.17;;;;;;;3.14;100.00;102324.84;5175382;28;20035;-68
2022/12/02 06:40:00;;;;;;;47.63;25.23;;;;;;;3.07;100.00;102317.97;5168567;28;20102;-67
2022/12/02 06:42:34;;;;;;;43.90;28.07;;;;;;;3.09;100.00;102324.00;5173227;28;20101;-67
2022/12/02 06:45:19;;;;;;;41.50;23.98;;;;;;;3.13;100.00;102317.94;5164799;28;20484;-67
2022/12/02 06:48:00;;;;;;;;;;;;;;;3.28;100.00;102318.75;5162756;28;20031;-66
2022/12/02 06:50:42;;;;;;;46.07;24.43;;;;;;;3.18;100.00;102330.03;5177156;28;19918;-67
2022/12/02 06:53:32;;;;;;;41.97;23.80;;;;;;;3.04;100.00;102322.31;5170573;28;20461;-67
2022/12/02 06:56:23;;;;;;;42.10;23.77;;;;;;;3.03;100.00;102318.84;5173944;28;20058;-67
2022/12/02 06:58:58;;;;;;;44.80;23.97;;;;;;;3.00;100.00;102322.31;5173450;28;20540;-66
2022/12/02 07:01:40;;;;;;;43.40;23.27;;;;;;;2.94;100.00;102327.53;5171539;28;20402;-67
2022/12/02 07:04:26;;;;;;;42.47;22.90;;;;;;;2.94;100.00;102321.47;5174668;28;20104;-67
2022/12/02 07:07:13;;;;;;;40.17;24.20;;;;;;;2.97;100.00;102322.31;5168812;28;20039;-67
2022/12/02 07:10:06;;;;;;;42.97;25.10;;;;;;;2.96;100.00;102330.09;5170770;28;20113;-66
2022/12/02 07:12:44;;;;;;;42.17;24.50;;;;;;;2.92;100.00;102330.97;5174374;28;20113;-67
2022/12/02 07:15:30;;;;;;;49.13;23.90;;;;;;;2.95;100.00;102329.22;5172183;28;20023;-68
2022/12/02 07:18:12;;;;;;;45.83;26.37;;;;;;;2.97;100.00;102331.81;5173875;28;20031;-67
2022/12/02 07:20:45;;;;;;;40.27;23.23;;;;;;;3.00;100.00;102330.06;5158323;28;20640;-68
2022/12/02 07:23:21;;;;;;;50.37;25.90;;;;;;;3.02;100.00;102327.47;5161971;28;20022;-67
2022/12/02 07:25:55;;;;;;;43.00;24.13;;;;;;;2.98;100.00;102330.97;5167771;28;20026;-67
2022/12/02 07:28:32;;;;;;;46.45;26.25;;;;;;;2.90;100.00;102321.50;5169732;28;20023;-68
2022/12/02 07:31:06;;;;;;;37.97;21.63;;;;;;;3.05;100.00;102335.25;5172580;28;20081;-68
2022/12/02 07:33:38;;;;;;;39.22;21.92;;;;;;;3.01;100.00;102333.53;5170701;28;20390;-67
2022/12/02 07:36:09;;;;;;;42.87;23.87;;;;;;;3.10;100.00;102328.31;5175965;28;20029;-67
2022/12/02 07:38:40;;;;;;;36.20;21.43;;;;;;;3.05;100.00;102324.03;5176234;28;20073;-67
2022/12/02 07:41:12;;;;;;;41.20;23.87;;;;;;;3.04;100.00;102325.75;5175728;28;20062;-68
2022/12/02 07:43:44;;;;;;;42.00;22.13;;;;;;;3.17;100.00;102329.16;5174701;28;20089;-67
2022/12/02 07:46:15;;;;;;;43.17;23.90;;;;;;;3.19;100.00;102327.44;5174712;28;20030;-68
2022/12/02 07:48:46;;;;;;;39.67;21.03;;;;;;;3.15;100.00;102325.72;5174274;28;20027;-69
2022/12/02 07:51:17;;;;;;;40.50;22.03;;;;;;;3.14;100.00;102317.06;5173858;28;20055;-73
2022/12/02 07:53:49;;;;;;;39.30;23.13;;;;;;;3.14;100.00;102313.66;5162636;28;20367;-72
2022/12/02 07:56:20;;;;;;;38.90;20.80;;;;;;;3.16;100.00;102326.56;5163626;28;20139;-71
2022/12/02 07:58:51;;;;;;;37.83;22.30;;;;;;;3.14;100.00;102319.66;5173121;28;20031;-71
2022/12/02 08:01:23;;;;;;;36.80;21.07;;;;;;;3.13;100.00;102328.31;5169162;28;20060;-71
2022/12/02 08:03:54;;;;;;;37.87;22.80;;;;;;;3.11;100.00;102335.22;5155798;28;20031;-71
2022/12/02 08:06:25;;;;;;;33.57;20.53;;;;;;;3.11;100.00;102324.00;5169666;28;20039;-71
2022/12/02 08:08:57;;;;;;;32.40;19.87;;;;;;;3.07;100.00;102317.13;5174225;28;20026;-71
2022/12/02 08:11:28;;;;;;;35.03;20.27;;;;;;;3.04;100.00;102330.91;5174227;28;20454;-71
2022/12/02 08:13:59;;;;;;;38.07;23.40;;;;;;;3.17;100.00;102334.34;5175028;28;20037;-71
2022/12/02 08:16:31;;;;;;;38.10;21.40;;;;;;;3.06;100.00;102328.31;5171360;28;20431;-71
2022/12/02 08:19:02;;;;;;;38.73;23.80;;;;;;;3.13;100.00;102320.53;5174127;28;20413;-70
2022/12/02 08:21:34;;;;;;;41.27;22.73;;;;;;;3.11;100.00;102324.84;5172498;28;20039;-71
2022/12/02 08:24:06;;;;;;;45.60;25.00;;;;;;;3.14;100.00;102324.84;5169574;28;20031;-70
2022/12/02 08:26:37;;;;;;;38.67;21.87;;;;;;;3.13;100.00;102333.47;5172429;28;20508;-70
2022/12/02 08:29:09;;;;;;;39.17;23.40;;;;;;;3.16;100.00;102331.75;5173315;28;20093;-69
2022/12/02 08:31:40;;;;;;;36.17;23.17;;;;;;;3.15;100.00;102325.72;5168655;28;20038;-70
2022/12/02 08:34:11;;;;;;;38.23;23.13;;;;;;;3.07;100.00;102328.31;5171818;28;20059;-69
2022/12/02 08:36:42;;;;;;;43.90;23.37;;;;;;;3.26;100.00;102326.50;5171094;28;20027;-70
2022/12/02 08:39:14;;;;;;;39.20;21.63;;;;;;;3.14;100.00;102313.66;5168503;28;20074;-69
2022/12/02 08:41:45;;;;;;;43.37;22.70;;;;;;;3.13;100.00;102323.13;5173895;28;20034;-69
2022/12/02 08:44:16;;;;;;;42.43;24.83;;;;;;;3.24;100.00;102329.97;5160852;28;20023;-69
2022/12/02 08:46:47;;;;;;;41.50;23.40;;;;;;;3.17;100.00;102316.22;5164653;28;20030;-69
2022/12/02 08:49:19;;;;;;;48.00;24.83;;;;;;;3.33;100.00;102323.91;5172399;28;20039;-69
2022/12/02 08:51:51;;;;;;;39.50;23.73;;;;;;;3.21;100.00;102330.00;5171615;28;20050;-69
2022/12/02 08:54:22;;;;;;;42.00;24.63;;;;;;;3.29;100.00;102330.81;5165120;28;20041;-69
2022/12/02 08:56:55;;;;;;;43.43;26.83;;;;;;;3.12;100.00;102324.00;5166742;28;20422;-69
2022/12/02 08:59:26;;;;;;;41.20;23.87;;;;;;;3.14;100.00;102329.19;5162831;28;20047;-69
2022/12/02 09:01:58;;;;;;;42.93;25.07;;;;;;;3.08;100.00;102327.47;5160165;28;20485;-69
2022/12/02 09:04:29;;;;;;;43.33;24.53;;;;;;;3.06;100.00;102321.44;5162741;28;20054;-69
2022/12/02 09:07:00;;;;;;;42.17;25.07;;;;;;;2.88;100.00;102302.50;5160672;28;20035;-69
2022/12/02 09:09:32;;;;;;;38.27;22.83;;;;;;;3.12;100.00;102321.41;5164333;28;20478;-69
2022/12/02 09:12:03;;;;;;;38.43;23.23;;;;;;;3.06;100.00;102313.66;5160151;28;20035;-69
2022/12/02 09:14:34;;;;;;;44.90;24.60;;;;;;;3.04;100.00;102322.31;5171264;28;20049;-69
2022/12/02 09:17:06;;;;;;;38.90;22.23;;;;;;;3.08;100.00;102330.06;5158254;28;20372;-69
2022/12/02 09:19:37;;;;;;;34.17;21.63;;;;;;;3.00;100.00;102321.47;5164850;28;20474;-69
2022/12/02 09:22:08;;;;;;;35.23;22.03;;;;;;;3.02;100.00;102325.75;5159743;28;20450;-69
2022/12/02 09:24:39;;;;;;;38.63;22.93;;;;;;;3.01;100.00;102331.81;5165048;28;20027;-69
2022/12/02 09:27:11;;;;;;;37.80;20.50;;;;;;;2.97;100.00;102316.28;5166006;28;20046;-69
2022/12/02 09:29:42;;;;;;;35.57;21.33;;;;;;;3.02;100.00;102314.53;5165066;28;20073;-69
2022/12/02 09:32:13;;;;;;;33.20;20.90;;;;;;;2.92;100.00;102323.19;5158630;28;20399;-70
2022/12/02 09:34:44;;;;;;;34.70;20.30;;;;;;;2.89;100.00;102316.31;5171777;28;20035;-70
2022/12/02 09:37:16;;;;;;;30.90;18.77;;;;;;;2.84;100.00;102320.66;5173387;28;20027;-70
2022/12/02 09:39:47;;;;;;;31.20;20.17;;;;;;;2.87;100.00;102316.34;5173947;28;20026;-70
2022/12/02 09:42:19;;;;;;;31.23;18.87;;;;;;;2.99;100.00;102322.31;5174348;28;20097;-69
2022/12/02 09:44:51;;;;;;;31.40;19.00;;;;;;;2.95;100.00;102307.69;5173481;28;20027;-70
2022/12/02 09:47:24;;;;;;;34.10;17.50;;;;;;;2.88;100.00;102310.28;5172998;28;20039;-70
2022/12/02 09:49:56;;;;;;;35.63;18.00;;;;;;;2.95;100.00;102305.94;5172526;28;20023;-70
2022/12/02 09:52:28;;;;;;;35.97;19.13;;;;;;;3.00;100.00;102298.16;5177636;28;20046;-70
2022/12/02 09:55:01;;;;;;;33.67;19.10;;;;;;;2.97;100.00;102301.63;5177717;28;20111;-70
2022/12/02 09:57:32;;;;;;;30.57;19.50;;;;;;;2.97;100.00;102291.25;5177982;28;20062;-70
2022/12/02 10:00:08;;;;;;;34.20;19.10;;;;;;;3.05;100.00;102304.19;5176499;28;20069;-70
2022/12/02 10:02:43;;;;;;;35.43;19.90;;;;;;;3.16;100.00;102303.28;5177963;28;20635;-69
2022/12/02 10:05:26;;;;;;;37.43;20.57;;;;;;;3.12;100.00;102298.13;5177798;28;20045;-70
2022/12/02 10:07:59;;;;;;;34.93;19.63;;;;;;;3.06;100.00;102300.72;5177443;28;20022;-70
2022/12/02 10:10:40;;;;;;;36.90;21.10;;;;;;;3.09;100.00;102298.09;5177954;28;20047;-70
2022/12/02 10:13:18;;;;;;;34.87;20.33;;;;;;;3.09;100.00;102295.53;5178086;28;20069;-70
2022/12/02 10:15:51;;;;;;;32.53;19.10;;;;;;;3.05;100.00;102301.59;5175588;28;20027;-70
2022/12/02 10:18:30;;;;;;;34.77;18.23;;;;;;;3.10;100.00;102306.75;5177970;28;20049;-70
2022/12/02 10:21:01;;;;;;;35.43;20.63;;;;;;;2.97;100.00;102306.78;5177228;28;20041;-69
2022/12/02 10:23:32;;;;;;;30.20;19.90;;;;;;;3.04;100.00;102294.69;5177144;28;20027;-70
2022/12/02 10:26:06;;;;;;;38.53;20.20;;;;;;;3.11;100.00;102292.91;5176726;28;20042;-70
2022/12/02 10:28:39;;;;;;;33.17;19.70;;;;;;;3.01;100.00;102299.88;5168825;28;20544;-69
2022/12/02 10:31:13;;;;;;;36.73;19.17;;;;;;;2.99;100.00;102288.66;5175792;28;20538;-69
2022/12/02 10:34:02;;;;;;;40.40;21.38;;;;;;;3.06;100.00;102297.25;5174803;28;20030;-70
2022/12/02 10:36:39;;;;;;;40.20;21.67;;;;;;;3.04;100.00;102284.31;5173077;28;20377;-69
2022/12/02 10:39:20;;;;;;;40.37;22.10;;;;;;;3.11;100.00;102291.19;5176652;28;20081;-69
2022/12/02 10:42:03;;;;;;;40.90;21.00;;;;;;;3.09;100.00;102279.16;5177534;28;20417;-69
2022/12/02 10:44:41;;;;;;;45.03;24.17;;;;;;;3.04;100.00;102281.75;5176876;28;20041;-69
2022/12/02 10:47:20;;;;;;;47.20;23.97;;;;;;;3.05;100.00;102277.44;5175442;28;20030;-70
2022/12/02 10:49:53;;;;;;;48.77;25.20;;;;;;;2.99;100.00;102276.59;5175370;28;20110;-69
2022/12/02 10:52:30;;;;;;;53.43;25.10;;;;;;;3.03;100.00;102274.84;5175569;28;20043;-69
2022/12/02 10:55:03;;;;;;;60.27;26.93;;;;;;;3.02;100.00;102276.56;5176514;28;20039;-69
2022/12/02 10:57:34;;;;;;;51.47;25.47;;;;;;;2.95;100.00;102271.44;5175416;28;20603;-69
2022/12/02 11:00:20;;;;;;;56.83;27.57;;;;;;;3.02;100.00;102267.94;5175404;28;20065;-69
2022/12/02 11:02:57;;;;;;;58.13;27.20;;;;;;;2.98;100.00;102267.13;5175813;28;20026;-69
2022/12/02 11:05:31;;;;;;;57.53;27.67;;;;;;;2.99;100.00;102266.25;5176609;28;20089;-69
2022/12/02 11:08:16;;;;;;;53.28;25.60;;;;;;;3.10;100.00;102254.97;5176291;28;20018;-69
2022/12/02 11:11:04;;;;;;;58.47;27.80;;;;;;;3.02;100.00;102262.75;5176782;28;20085;-70
2022/12/02 11:13:53;;;;;;;58.43;28.57;;;;;;;3.20;100.00;102260.94;5176431;28;20063;-69
2022/12/02 11:16:28;;;;;;;56.13;27.73;;;;;;;3.12;100.00;102264.47;5174042;28;20034;-69
2022/12/02 11:19:08;;;;;;;56.67;27.63;;;;;;;3.16;100.00;102261.84;5176086;28;20023;-70
2022/12/02 11:21:41;;;;;;;60.10;28.23;;;;;;;3.23;100.00;102268.72;5176192;28;20022;-68
2022/12/02 11:24:36;;;;;;;64.23;29.67;;;;;;;3.20;100.00;102248.88;5176057;28;21603;-70
2022/12/02 11:27:09;;;;;;;59.45;27.75;;;;;;;3.26;100.00;102255.75;5170426;28;20569;-69
2022/12/02 11:30:02;;;;;;;58.67;27.27;;;;;;;3.21;100.00;102253.16;5171480;28;20450;-68
2022/12/02 11:32:47;;;;;;;60.07;27.50;;;;;;;3.22;100.00;102248.84;5171498;28;20031;-68
2022/12/02 11:35:38;;;;;;;;;;;;;;;3.41;100.00;102248.72;5167563;28;20035;-69
2022/12/02 11:38:23;;;;;;;56.17;28.70;;;;;;;3.32;100.00;102250.50;5175636;28;19914;-68
2022/12/02 11:40:58;;;;;;;58.47;27.93;;;;;;;3.36;100.00;102246.19;5174923;28;20030;-68
2022/12/02 11:43:45;;;;;;;54.03;26.67;;;;;;;3.37;100.00;102242.72;5175587;28;20037;-69